sensor_id;sensor_type;location;lat;lon;timestamp;temperature;humidity
23301;DHT22;11819;51.394;12.340;2022-12-07T00:40:58;3.60;99.90
23301;DHT22;11819;51.394;12.340;2022-12-07T00:43:24;3.60;99.30
23301;DHT22;11819;51.394;12.340;2022-12-07T00:45:50;3.50;97.60
23301;DHT22;11819;51.394;12.340;2022-12-07T00:48:15;3.50;97.20
23301;DHT22;11819;51.394;12.340;2022-12-07T00:50:41;3.50;97.40
23301;DHT22;11819;51.394;12.340;2022-12-07T00:53:07;3.50;97.50
23301;DHT22;11819;51.394;12.340;2022-12-07T00:55:33;3.50;97.60
23301;DHT22;11819;51.394;12.340;2022-12-07T00:57:59;3.50;97.80
23301;DHT22;11819;51.394;12.340;2022-12-07T01:00:25;3.50;98.50
23301;DHT22;11819;51.394;12.340;2022-12-07T01:02:50;3.40;98.90
23301;DHT22;11819;51.394;12.340;2022-12-07T01:15:00;3.30;99.90
23301;DHT22;11819;51.394;12.340;2022-12-07T01:32:04;3.00;96.10
23301;DHT22;11819;51.394;12.340;2022-12-07T01:34:30;2.90;95.70
23301;DHT22;11819;51.394;12.340;2022-12-07T01:36:56;2.90;95.90
23301;DHT22;11819;51.394;12.340;2022-12-07T01:39:22;2.90;96.70
23301;DHT22;11819;51.394;12.340;2022-12-07T01:41:48;2.90;97.70
23301;DHT22;11819;51.394;12.340;2022-12-07T01:46:54;2.90;96.80
23301;DHT22;11819;51.394;12.340;2022-12-07T01:49:58;2.80;96.30
23301;DHT22;11819;51.394;12.340;2022-12-07T01:52:29;2.80;96.20
23301;DHT22;11819;51.394;12.340;2022-12-07T01:55:04;2.70;95.40
23301;DHT22;11819;51.394;12.340;2022-12-07T01:57:33;2.70;95.00
23301;DHT22;11819;51.394;12.340;2022-12-07T02:00:00;2.70;94.80
23301;DHT22;11819;51.394;12.340;2022-12-07T02:02:52;2.70;94.80
23301;DHT22;11819;51.394;12.340;2022-12-07T02:05:19;2.60;94.80
23301;DHT22;11819;51.394;12.340;2022-12-07T02:07:47;2.60;94.80
23301;DHT22;11819;51.394;12.340;2022-12-07T02:10:18;2.50;94.80
23301;DHT22;11819;51.394;12.340;2022-12-07T02:12:48;2.50;94.90
23301;DHT22;11819;51.394;12.340;2022-12-07T02:15:14;2.50;94.90
23301;DHT22;11819;51.394;12.340;2022-12-07T02:18:03;2.40;95.10
23301;DHT22;11819;51.394;12.340;2022-12-07T02:20:51;2.40;95.00
23301;DHT22;11819;51.394;12.340;2022-12-07T02:23:32;2.40;95.00
23301;DHT22;11819;51.394;12.340;2022-12-07T02:26:19;2.40;95.00
23301;DHT22;11819;51.394;12.340;2022-12-07T02:32:18;2.40;95.00
23301;DHT22;11819;51.394;12.340;2022-12-07T02:43:08;2.20;95.30
23301;DHT22;11819;51.394;12.340;2022-12-07T02:45:38;2.20;95.10
23301;DHT22;11819;51.394;12.340;2022-12-07T02:48:05;2.20;95.20
23301;DHT22;11819;51.394;12.340;2022-12-07T02:50:32;2.20;96.20
23301;DHT22;11819;51.394;12.340;2022-12-07T02:52:57;2.20;95.30
23301;DHT22;11819;51.394;12.340;2022-12-07T03:13:45;2.20;95.20
23301;DHT22;11819;51.394;12.340;2022-12-07T03:16:28;2.20;95.30
23301;DHT22;11819;51.394;12.340;2022-12-07T03:19:07;2.20;95.30
23301;DHT22;11819;51.394;12.340;2022-12-07T03:21:38;2.20;95.30
23301;DHT22;11819;51.394;12.340;2022-12-07T03:24:13;2.20;95.20
23301;DHT22;11819;51.394;12.340;2022-12-07T03:26:48;2.20;95.20
23301;DHT22;11819;51.394;12.340;2022-12-07T03:29:21;2.30;95.20
23301;DHT22;11819;51.394;12.340;2022-12-07T03:32:17;2.30;95.20
23301;DHT22;11819;51.394;12.340;2022-12-07T03:34:56;2.30;95.10
23301;DHT22;11819;51.394;12.340;2022-12-07T03:37:31;2.30;95.20
23301;DHT22;11819;51.394;12.340;2022-12-07T03:40:16;2.30;95.10
23301;DHT22;11819;51.394;12.340;2022-12-07T03:42:43;2.30;95.10
23301;DHT22;11819;51.394;12.340;2022-12-07T03:45:10;2.40;95.10
23301;DHT22;11819;51.394;12.340;2022-12-07T03:48:05;2.30;95.00
23301;DHT22;11819;51.394;12.340;2022-12-07T03:51:13;2.40;95.30
23301;DHT22;11819;51.394;12.340;2022-12-07T03:56:09;2.40;96.50
23301;DHT22;11819;51.394;12.340;2022-12-07T03:58:35;2.40;95.20
23301;DHT22;11819;51.394;12.340;2022-12-07T04:01:02;2.40;95.40
23301;DHT22;11819;51.394;12.340;2022-12-07T04:03:28;2.40;96.10
23301;DHT22;11819;51.394;12.340;2022-12-07T04:27:48;2.40;97.80
23301;DHT22;11819;51.394;12.340;2022-12-07T04:52:09;2.60;98.10
23301;DHT22;11819;51.394;12.340;2022-12-07T04:54:35;2.50;99.90
23301;DHT22;11819;51.394;12.340;2022-12-07T04:57:00;2.50;95.70
23301;DHT22;11819;51.394;12.340;2022-12-07T04:59:26;2.60;95.70
23301;DHT22;11819;51.394;12.340;2022-12-07T05:01:52;2.60;95.80
23301;DHT22;11819;51.394;12.340;2022-12-07T05:04:17;2.60;95.80
23301;DHT22;11819;51.394;12.340;2022-12-07T05:06:43;2.60;95.80
23301;DHT22;11819;51.394;12.340;2022-12-07T05:09:09;2.70;95.80
23301;DHT22;11819;51.394;12.340;2022-12-07T05:11:35;2.70;95.80
23301;DHT22;11819;51.394;12.340;2022-12-07T05:16:36;2.70;95.90
23301;DHT22;11819;51.394;12.340;2022-12-07T05:19:02;2.70;96.00
23301;DHT22;11819;51.394;12.340;2022-12-07T05:21:28;2.80;96.50
23301;DHT22;11819;51.394;12.340;2022-12-07T05:23:54;2.80;97.20
23301;DHT22;11819;51.394;12.340;2022-12-07T05:26:20;2.90;99.30
23301;DHT22;11819;51.394;12.340;2022-12-07T05:28:51;2.90;99.90
23301;DHT22;11819;51.394;12.340;2022-12-07T05:31:16;2.90;99.90
23301;DHT22;11819;51.394;12.340;2022-12-07T05:33:42;3.00;99.90
23301;DHT22;11819;51.394;12.340;2022-12-07T05:36:08;3.00;99.90
23301;DHT22;11819;51.394;12.340;2022-12-07T05:38:33;3.10;99.90
23301;DHT22;11819;51.394;12.340;2022-12-07T05:43:32;3.10;99.90
23301;DHT22;11819;51.394;12.340;2022-12-07T05:45:57;3.10;97.80
23301;DHT22;11819;51.394;12.340;2022-12-07T05:48:24;3.00;96.30
23301;DHT22;11819;51.394;12.340;2022-12-07T05:50:51;3.00;96.00
23301;DHT22;11819;51.394;12.340;2022-12-07T05:53:17;3.10;96.10
23301;DHT22;11819;51.394;12.340;2022-12-07T05:55:43;3.10;96.20
23301;DHT22;11819;51.394;12.340;2022-12-07T05:58:10;3.10;96.30
23301;DHT22;11819;51.394;12.340;2022-12-07T06:00:55;3.10;96.90
23301;DHT22;11819;51.394;12.340;2022-12-07T06:03:21;3.20;98.30
23301;DHT22;11819;51.394;12.340;2022-12-07T06:05:47;3.30;99.90
23301;DHT22;11819;51.394;12.340;2022-12-07T06:08:13;3.30;99.00
23301;DHT22;11819;51.394;12.340;2022-12-07T06:10:40;3.40;99.20
23301;DHT22;11819;51.394;12.340;2022-12-07T06:15:35;3.40;99.90
23301;DHT22;11819;51.394;12.340;2022-12-07T06:18:01;3.40;98.70
23301;DHT22;11819;51.394;12.340;2022-12-07T06:20:27;3.40;98.70
23301;DHT22;11819;51.394;12.340;2022-12-07T06:22:52;3.40;96.10
23301;DHT22;11819;51.394;12.340;2022-12-07T06:25:18;3.40;96.10
23301;DHT22;11819;51.394;12.340;2022-12-07T06:27:44;3.40;96.10
23301;DHT22;11819;51.394;12.340;2022-12-07T06:30:09;3.40;96.00
23301;DHT22;11819;51.394;12.340;2022-12-07T06:32:36;3.40;96.00
23301;DHT22;11819;51.394;12.340;2022-12-07T06:35:02;3.40;95.90
23301;DHT22;11819;51.394;12.340;2022-12-07T06:37:28;3.40;96.00
23301;DHT22;11819;51.394;12.340;2022-12-07T06:39:54;3.40;96.00
23301;DHT22;11819;51.394;12.340;2022-12-07T06:42:19;3.40;96.30
23301;DHT22;11819;51.394;12.340;2022-12-07T06:44:45;3.40;96.40
23301;DHT22;11819;51.394;12.340;2022-12-07T06:47:11;3.40;96.80
23301;DHT22;11819;51.394;12.340;2022-12-07T06:49:37;3.40;97.20
23301;DHT22;11819;51.394;12.340;2022-12-07T06:52:03;3.50;97.60
23301;DHT22;11819;51.394;12.340;2022-12-07T06:54:30;3.50;97.70
23301;DHT22;11819;51.394;12.340;2022-12-07T06:56:56;3.60;98.40
23301;DHT22;11819;51.394;12.340;2022-12-07T06:59:21;3.60;99.30
23301;DHT22;11819;51.394;12.340;2022-12-07T07:01:48;3.60;99.90
23301;DHT22;11819;51.394;12.340;2022-12-07T07:04:13;3.60;99.90
23301;DHT22;11819;51.394;12.340;2022-12-07T07:06:39;3.60;96.20
23301;DHT22;11819;51.394;12.340;2022-12-07T07:09:04;3.70;96.90
23301;DHT22;11819;51.394;12.340;2022-12-07T07:11:30;3.70;96.70
23301;DHT22;11819;51.394;12.340;2022-12-07T07:13:56;3.70;96.60
23301;DHT22;11819;51.394;12.340;2022-12-07T07:16:24;3.70;96.60
23301;DHT22;11819;51.394;12.340;2022-12-07T07:18:50;3.70;96.60
23301;DHT22;11819;51.394;12.340;2022-12-07T07:21:15;3.70;97.00
23301;DHT22;11819;51.394;12.340;2022-12-07T07:23:41;3.70;97.00
23301;DHT22;11819;51.394;12.340;2022-12-07T07:26:07;3.70;97.50
23301;DHT22;11819;51.394;12.340;2022-12-07T07:28:32;3.80;97.60
23301;DHT22;11819;51.394;12.340;2022-12-07T07:30:58;3.80;98.10
23301;DHT22;11819;51.394;12.340;2022-12-07T07:33:24;3.80;98.60
23301;DHT22;11819;51.394;12.340;2022-12-07T07:35:49;3.90;99.10
23301;DHT22;11819;51.394;12.340;2022-12-07T07:38:15;3.80;99.20
23301;DHT22;11819;51.394;12.340;2022-12-07T07:40:41;3.80;99.80
23301;DHT22;11819;51.394;12.340;2022-12-07T07:43:06;3.80;96.80
23301;DHT22;11819;51.394;12.340;2022-12-07T07:45:32;3.80;97.20
23301;DHT22;11819;51.394;12.340;2022-12-07T07:47:57;3.80;97.60
23301;DHT22;11819;51.394;12.340;2022-12-07T07:50:23;3.90;98.10
23301;DHT22;11819;51.394;12.340;2022-12-07T07:52:49;3.80;98.10
23301;DHT22;11819;51.394;12.340;2022-12-07T07:55:15;3.80;98.80
23301;DHT22;11819;51.394;12.340;2022-12-07T07:57:40;3.80;99.90
23301;DHT22;11819;51.394;12.340;2022-12-07T08:00:09;3.80;99.60
23301;DHT22;11819;51.394;12.340;2022-12-07T08:02:38;3.80;99.90
23301;DHT22;11819;51.394;12.340;2022-12-07T08:05:05;3.80;99.90
23301;DHT22;11819;51.394;12.340;2022-12-07T08:07:31;3.80;99.90
23301;DHT22;11819;51.394;12.340;2022-12-07T08:09:56;3.90;99.90
23301;DHT22;11819;51.394;12.340;2022-12-07T08:17:14;3.90;99.90
23301;DHT22;11819;51.394;12.340;2022-12-07T08:22:06;3.90;98.50
23301;DHT22;11819;51.394;12.340;2022-12-07T08:24:35;3.90;99.90
23301;DHT22;11819;51.394;12.340;2022-12-07T08:27:01;3.90;97.80
23301;DHT22;11819;51.394;12.340;2022-12-07T08:29:26;3.90;97.80
23301;DHT22;11819;51.394;12.340;2022-12-07T08:31:52;3.90;97.40
23301;DHT22;11819;51.394;12.340;2022-12-07T08:34:18;3.90;97.90
23301;DHT22;11819;51.394;12.340;2022-12-07T08:36:43;3.90;98.00
23301;DHT22;11819;51.394;12.340;2022-12-07T08:39:09;3.90;98.30
23301;DHT22;11819;51.394;12.340;2022-12-07T08:41:35;4.00;98.20
23301;DHT22;11819;51.394;12.340;2022-12-07T08:44:01;4.00;97.90
23301;DHT22;11819;51.394;12.340;2022-12-07T08:46:48;4.00;97.30
23301;DHT22;11819;51.394;12.340;2022-12-07T08:49:31;4.00;96.90
23301;DHT22;11819;51.394;12.340;2022-12-07T08:51:58;4.00;96.90
23301;DHT22;11819;51.394;12.340;2022-12-07T08:54:24;4.00;96.80
23301;DHT22;11819;51.394;12.340;2022-12-07T08:56:50;4.10;96.50
23301;DHT22;11819;51.394;12.340;2022-12-07T08:59:18;4.10;97.00
23301;DHT22;11819;51.394;12.340;2022-12-07T09:01:44;4.20;96.70
23301;DHT22;11819;51.394;12.340;2022-12-07T09:04:10;4.20;97.10
23301;DHT22;11819;51.394;12.340;2022-12-07T09:06:36;4.30;97.40
23301;DHT22;11819;51.394;12.340;2022-12-07T09:09:03;4.40;97.90
23301;DHT22;11819;51.394;12.340;2022-12-07T09:11:29;4.40;98.40
23301;DHT22;11819;51.394;12.340;2022-12-07T09:13:55;4.40;98.90
23301;DHT22;11819;51.394;12.340;2022-12-07T09:16:21;4.40;99.30
23301;DHT22;11819;51.394;12.340;2022-12-07T09:18:46;4.50;99.00
23301;DHT22;11819;51.394;12.340;2022-12-07T09:21:12;4.50;98.80
23301;DHT22;11819;51.394;12.340;2022-12-07T09:23:37;4.50;99.00
23301;DHT22;11819;51.394;12.340;2022-12-07T09:26:04;4.60;99.50
23301;DHT22;11819;51.394;12.340;2022-12-07T09:28:33;4.60;98.50
23301;DHT22;11819;51.394;12.340;2022-12-07T09:30:59;4.60;99.30
23301;DHT22;11819;51.394;12.340;2022-12-07T09:33:25;4.60;99.30
23301;DHT22;11819;51.394;12.340;2022-12-07T09:35:51;4.60;99.20
23301;DHT22;11819;51.394;12.340;2022-12-07T09:38:18;4.70;99.20
23301;DHT22;11819;51.394;12.340;2022-12-07T09:40:45;4.60;99.10
23301;DHT22;11819;51.394;12.340;2022-12-07T09:43:13;4.60;99.50
23301;DHT22;11819;51.394;12.340;2022-12-07T09:45:40;4.60;99.90
23301;DHT22;11819;51.394;12.340;2022-12-07T09:48:18;4.60;99.10
23301;DHT22;11819;51.394;12.340;2022-12-07T09:50:46;4.60;98.90
23301;DHT22;11819;51.394;12.340;2022-12-07T09:53:23;4.60;99.60
23301;DHT22;11819;51.394;12.340;2022-12-07T09:55:49;4.60;99.90
23301;DHT22;11819;51.394;12.340;2022-12-07T09:58:24;4.70;99.00
23301;DHT22;11819;51.394;12.340;2022-12-07T10:00:57;4.70;99.70
23301;DHT22;11819;51.394;12.340;2022-12-07T10:03:25;4.70;99.90
23301;DHT22;11819;51.394;12.340;2022-12-07T10:05:52;4.80;99.90
23301;DHT22;11819;51.394;12.340;2022-12-07T10:08:18;4.70;98.20
23301;DHT22;11819;51.394;12.340;2022-12-07T10:10:45;4.80;98.00
23301;DHT22;11819;51.394;12.340;2022-12-07T10:13:18;4.80;98.60
23301;DHT22;11819;51.394;12.340;2022-12-07T10:15:52;4.80;98.60
23301;DHT22;11819;51.394;12.340;2022-12-07T10:18:39;4.80;99.40
23301;DHT22;11819;51.394;12.340;2022-12-07T10:21:18;4.80;99.90
23301;DHT22;11819;51.394;12.340;2022-12-07T10:39:15;4.90;99.90
23301;DHT22;11819;51.394;12.340;2022-12-07T10:49:37;5.10;99.00
23301;DHT22;11819;51.394;12.340;2022-12-07T10:52:25;5.10;99.90
23301;DHT22;11819;51.394;12.340;2022-12-07T10:58:01;5.10;95.50
23301;DHT22;11819;51.394;12.340;2022-12-07T11:00:39;5.10;94.60
23301;DHT22;11819;51.394;12.340;2022-12-07T11:03:33;5.00;94.60
23301;DHT22;11819;51.394;12.340;2022-12-07T11:06:16;5.00;94.80
23301;DHT22;11819;51.394;12.340;2022-12-07T11:09:12;5.10;95.90
23301;DHT22;11819;51.394;12.340;2022-12-07T11:12:06;5.10;95.60
23301;DHT22;11819;51.394;12.340;2022-12-07T11:14:59;5.10;94.80
23301;DHT22;11819;51.394;12.340;2022-12-07T11:17:59;5.10;95.20
23301;DHT22;11819;51.394;12.340;2022-12-07T11:20:58;5.10;95.40
23301;DHT22;11819;51.394;12.340;2022-12-07T11:27:12;5.00;95.60
23301;DHT22;11819;51.394;12.340;2022-12-07T11:35:18;4.90;94.50
23301;DHT22;11819;51.394;12.340;2022-12-07T11:37:39;4.90;94.40
23301;DHT22;11819;51.394;12.340;2022-12-07T11:40:29;4.90;94.50
23301;DHT22;11819;51.394;12.340;2022-12-07T11:45:31;4.90;94.70
23301;DHT22;11819;51.394;12.340;2022-12-07T11:48:03;5.00;94.80
23301;DHT22;11819;51.394;12.340;2022-12-07T11:50:47;5.00;94.90
23301;DHT22;11819;51.394;12.340;2022-12-07T11:53:41;5.10;94.90
23301;DHT22;11819;51.394;12.340;2022-12-07T11:58:59;5.20;94.90
23301;DHT22;11819;51.394;12.340;2022-12-07T12:01:35;5.20;94.80
23301;DHT22;11819;51.394;12.340;2022-12-07T12:06:41;5.20;94.90
23301;DHT22;11819;51.394;12.340;2022-12-07T12:09:22;5.20;94.80
23301;DHT22;11819;51.394;12.340;2022-12-07T12:12:09;5.30;94.80
23301;DHT22;11819;51.394;12.340;2022-12-07T12:14:45;5.30;94.90
23301;DHT22;11819;51.394;12.340;2022-12-07T12:20:36;5.40;94.90
23301;DHT22;11819;51.394;12.340;2022-12-07T12:23:15;5.40;94.70
23301;DHT22;11819;51.394;12.340;2022-12-07T12:25:56;5.50;94.40
23301;DHT22;11819;51.394;12.340;2022-12-07T12:31:28;5.50;94.00
23301;DHT22;11819;51.394;12.340;2022-12-07T12:33:58;5.50;94.00
23301;DHT22;11819;51.394;12.340;2022-12-07T12:46:57;5.50;93.10
23301;DHT22;11819;51.394;12.340;2022-12-07T12:51:59;5.50;92.70
23301;DHT22;11819;51.394;12.340;2022-12-07T12:54:32;5.50;92.30
23301;DHT22;11819;51.394;12.340;2022-12-07T12:57:15;5.50;92.30
23301;DHT22;11819;51.394;12.340;2022-12-07T12:59:57;5.50;92.20
23301;DHT22;11819;51.394;12.340;2022-12-07T13:02:37;5.50;92.30
23301;DHT22;11819;51.394;12.340;2022-12-07T13:07:58;5.60;92.40
23301;DHT22;11819;51.394;12.340;2022-12-07T13:15:52;5.70;92.40
23301;DHT22;11819;51.394;12.340;2022-12-07T13:37:08;5.70;91.90
23301;DHT22;11819;51.394;12.340;2022-12-07T13:39:49;5.70;91.60
23301;DHT22;11819;51.394;12.340;2022-12-07T13:42:26;5.70;91.60
23301;DHT22;11819;51.394;12.340;2022-12-07T13:44:53;5.80;91.70
23301;DHT22;11819;51.394;12.340;2022-12-07T13:47:26;5.70;91.60
23301;DHT22;11819;51.394;12.340;2022-12-07T13:49:55;5.70;91.50
23301;DHT22;11819;51.394;12.340;2022-12-07T13:52:30;5.70;91.30
23301;DHT22;11819;51.394;12.340;2022-12-07T13:55:14;5.80;91.40
23301;DHT22;11819;51.394;12.340;2022-12-07T13:57:41;5.80;91.70
23301;DHT22;11819;51.394;12.340;2022-12-07T14:00:16;5.80;91.20
23301;DHT22;11819;51.394;12.340;2022-12-07T14:03:01;5.80;91.10
23301;DHT22;11819;51.394;12.340;2022-12-07T14:05:34;5.80;91.00
23301;DHT22;11819;51.394;12.340;2022-12-07T14:10:28;5.70;91.10
23301;DHT22;11819;51.394;12.340;2022-12-07T14:12:55;5.70;91.10
23301;DHT22;11819;51.394;12.340;2022-12-07T14:15:27;5.80;91.10
23301;DHT22;11819;51.394;12.340;2022-12-07T14:17:55;5.70;91.10
23301;DHT22;11819;51.394;12.340;2022-12-07T14:22:58;5.60;90.40
23301;DHT22;11819;51.394;12.340;2022-12-07T14:25:26;5.60;90.30
23301;DHT22;11819;51.394;12.340;2022-12-07T14:28:00;5.50;90.20
23301;DHT22;11819;51.394;12.340;2022-12-07T14:30:30;5.50;90.20
23301;DHT22;11819;51.394;12.340;2022-12-07T14:33:02;5.40;90.00
23301;DHT22;11819;51.394;12.340;2022-12-07T14:35:29;5.40;90.10
23301;DHT22;11819;51.394;12.340;2022-12-07T14:37:55;5.40;90.10
23301;DHT22;11819;51.394;12.340;2022-12-07T14:40:23;5.30;90.10
23301;DHT22;11819;51.394;12.340;2022-12-07T14:43:12;5.30;90.30
23301;DHT22;11819;51.394;12.340;2022-12-07T14:45:39;5.30;90.40
23301;DHT22;11819;51.394;12.340;2022-12-07T14:48:06;5.30;90.40
23301;DHT22;11819;51.394;12.340;2022-12-07T14:50:37;5.30;90.40
23301;DHT22;11819;51.394;12.340;2022-12-07T14:53:11;5.20;90.50
23301;DHT22;11819;51.394;12.340;2022-12-07T14:55:38;5.20;90.70
23301;DHT22;11819;51.394;12.340;2022-12-07T14:58:04;5.30;90.80
23301;DHT22;11819;51.394;12.340;2022-12-07T15:00:29;5.30;90.70
23301;DHT22;11819;51.394;12.340;2022-12-07T15:02:55;5.30;90.80
23301;DHT22;11819;51.394;12.340;2022-12-07T15:05:21;5.30;90.80
23301;DHT22;11819;51.394;12.340;2022-12-07T15:07:48;5.30;90.70
23301;DHT22;11819;51.394;12.340;2022-12-07T15:10:20;5.30;90.60
23301;DHT22;11819;51.394;12.340;2022-12-07T15:12:46;5.20;90.70
23301;DHT22;11819;51.394;12.340;2022-12-07T15:15:13;5.30;90.80
23301;DHT22;11819;51.394;12.340;2022-12-07T15:17:39;5.30;90.60
23301;DHT22;11819;51.394;12.340;2022-12-07T15:20:07;5.20;90.60
23301;DHT22;11819;51.394;12.340;2022-12-07T15:22:33;5.30;90.60
23301;DHT22;11819;51.394;12.340;2022-12-07T15:24:58;5.30;90.50
23301;DHT22;11819;51.394;12.340;2022-12-07T15:27:24;5.30;90.50
23301;DHT22;11819;51.394;12.340;2022-12-07T15:29:50;5.20;90.50
23301;DHT22;11819;51.394;12.340;2022-12-07T15:32:16;5.20;90.40
23301;DHT22;11819;51.394;12.340;2022-12-07T15:34:41;5.20;90.20
23301;DHT22;11819;51.394;12.340;2022-12-07T15:37:08;5.10;90.20
23301;DHT22;11819;51.394;12.340;2022-12-07T15:39:34;5.10;90.20
23301;DHT22;11819;51.394;12.340;2022-12-07T15:41:59;5.10;90.30
23301;DHT22;11819;51.394;12.340;2022-12-07T15:44:25;5.10;90.30
23301;DHT22;11819;51.394;12.340;2022-12-07T15:47:09;5.10;90.00
23301;DHT22;11819;51.394;12.340;2022-12-07T15:49:35;5.10;90.10
23301;DHT22;11819;51.394;12.340;2022-12-07T15:52:01;5.10;90.00
23301;DHT22;11819;51.394;12.340;2022-12-07T15:54:28;5.10;90.00
23301;DHT22;11819;51.394;12.340;2022-12-07T15:56:54;5.10;90.10
23301;DHT22;11819;51.394;12.340;2022-12-07T15:59:21;5.10;90.10
23301;DHT22;11819;51.394;12.340;2022-12-07T16:01:46;5.10;90.20
23301;DHT22;11819;51.394;12.340;2022-12-07T16:04:12;5.10;90.30
23301;DHT22;11819;51.394;12.340;2022-12-07T16:06:38;5.10;90.60
23301;DHT22;11819;51.394;12.340;2022-12-07T16:09:05;5.00;91.10
23301;DHT22;11819;51.394;12.340;2022-12-07T16:11:31;4.90;91.60
23301;DHT22;11819;51.394;12.340;2022-12-07T16:13:57;4.80;91.90
23301;DHT22;11819;51.394;12.340;2022-12-07T16:16:22;4.70;92.10
23301;DHT22;11819;51.394;12.340;2022-12-07T16:18:49;4.60;92.30
23301;DHT22;11819;51.394;12.340;2022-12-07T16:21:17;4.60;92.60
23301;DHT22;11819;51.394;12.340;2022-12-07T16:23:43;4.60;92.70
23301;DHT22;11819;51.394;12.340;2022-12-07T16:26:14;4.60;92.70
23301;DHT22;11819;51.394;12.340;2022-12-07T16:28:40;4.70;92.80
23301;DHT22;11819;51.394;12.340;2022-12-07T16:31:15;4.70;92.70
23301;DHT22;11819;51.394;12.340;2022-12-07T16:33:42;4.70;92.70
23301;DHT22;11819;51.394;12.340;2022-12-07T16:36:10;4.70;92.80
23301;DHT22;11819;51.394;12.340;2022-12-07T16:38:36;4.60;92.90
23301;DHT22;11819;51.394;12.340;2022-12-07T16:41:06;4.60;93.00
23301;DHT22;11819;51.394;12.340;2022-12-07T16:43:32;4.50;93.10
23301;DHT22;11819;51.394;12.340;2022-12-07T16:45:58;4.50;93.30
23301;DHT22;11819;51.394;12.340;2022-12-07T16:48:23;4.60;93.40
23301;DHT22;11819;51.394;12.340;2022-12-07T16:50:49;4.60;93.40
23301;DHT22;11819;51.394;12.340;2022-12-07T16:53:15;4.60;93.20
23301;DHT22;11819;51.394;12.340;2022-12-07T16:55:45;4.60;93.20
23301;DHT22;11819;51.394;12.340;2022-12-07T16:58:12;4.50;93.20
23301;DHT22;11819;51.394;12.340;2022-12-07T17:00:39;4.50;93.30
23301;DHT22;11819;51.394;12.340;2022-12-07T17:03:05;4.50;93.30
23301;DHT22;11819;51.394;12.340;2022-12-07T17:05:31;4.50;93.30
23301;DHT22;11819;51.394;12.340;2022-12-07T17:07:58;4.50;93.30
23301;DHT22;11819;51.394;12.340;2022-12-07T17:10:24;4.50;93.30
23301;DHT22;11819;51.394;12.340;2022-12-07T17:12:51;4.50;93.30
23301;DHT22;11819;51.394;12.340;2022-12-07T17:15:17;4.50;93.40
23301;DHT22;11819;51.394;12.340;2022-12-07T17:17:44;4.40;93.40
23301;DHT22;11819;51.394;12.340;2022-12-07T17:20:11;4.40;93.40
23301;DHT22;11819;51.394;12.340;2022-12-07T17:22:37;4.40;93.50
23301;DHT22;11819;51.394;12.340;2022-12-07T17:25:04;4.40;93.60
23301;DHT22;11819;51.394;12.340;2022-12-07T17:27:31;4.40;93.60
23301;DHT22;11819;51.394;12.340;2022-12-07T17:29:57;4.40;93.60
23301;DHT22;11819;51.394;12.340;2022-12-07T17:32:23;4.40;93.70
23301;DHT22;11819;51.394;12.340;2022-12-07T17:34:48;4.40;93.70
23301;DHT22;11819;51.394;12.340;2022-12-07T17:37:14;4.40;93.70
23301;DHT22;11819;51.394;12.340;2022-12-07T17:39:40;4.40;93.70
23301;DHT22;11819;51.394;12.340;2022-12-07T17:42:05;4.40;93.70
23301;DHT22;11819;51.394;12.340;2022-12-07T17:44:50;4.40;93.60
23301;DHT22;11819;51.394;12.340;2022-12-07T17:47:15;4.40;93.50
23301;DHT22;11819;51.394;12.340;2022-12-07T17:49:43;4.40;93.50
23301;DHT22;11819;51.394;12.340;2022-12-07T17:52:11;4.40;93.30
23301;DHT22;11819;51.394;12.340;2022-12-07T17:54:56;4.40;93.20
23301;DHT22;11819;51.394;12.340;2022-12-07T17:57:22;4.40;93.00
23301;DHT22;11819;51.394;12.340;2022-12-07T17:59:49;4.40;92.90
23301;DHT22;11819;51.394;12.340;2022-12-07T18:02:17;4.40;92.90
23301;DHT22;11819;51.394;12.340;2022-12-07T18:04:43;4.30;92.90
23301;DHT22;11819;51.394;12.340;2022-12-07T18:07:09;4.30;92.90
23301;DHT22;11819;51.394;12.340;2022-12-07T18:09:35;4.30;92.80
23301;DHT22;11819;51.394;12.340;2022-12-07T18:12:01;4.30;92.80
23301;DHT22;11819;51.394;12.340;2022-12-07T18:14:27;4.30;92.80
23301;DHT22;11819;51.394;12.340;2022-12-07T18:16:53;4.30;92.70
23301;DHT22;11819;51.394;12.340;2022-12-07T18:19:18;4.30;92.70
23301;DHT22;11819;51.394;12.340;2022-12-07T18:21:44;4.30;92.60
23301;DHT22;11819;51.394;12.340;2022-12-07T18:24:13;4.30;92.70
23301;DHT22;11819;51.394;12.340;2022-12-07T18:26:39;4.30;92.70
23301;DHT22;11819;51.394;12.340;2022-12-07T18:29:06;4.30;92.70
23301;DHT22;11819;51.394;12.340;2022-12-07T18:31:33;4.30;92.70
23301;DHT22;11819;51.394;12.340;2022-12-07T18:34:04;4.30;92.70
23301;DHT22;11819;51.394;12.340;2022-12-07T18:36:33;4.30;92.70
23301;DHT22;11819;51.394;12.340;2022-12-07T18:38:59;4.30;92.70
23301;DHT22;11819;51.394;12.340;2022-12-07T18:41:25;4.30;92.70
23301;DHT22;11819;51.394;12.340;2022-12-07T18:43:51;4.30;92.60
23301;DHT22;11819;51.394;12.340;2022-12-07T18:46:18;4.30;92.60
23301;DHT22;11819;51.394;12.340;2022-12-07T18:48:45;4.30;92.60
23301;DHT22;11819;51.394;12.340;2022-12-07T18:51:12;4.30;92.60
23301;DHT22;11819;51.394;12.340;2022-12-07T18:53:38;4.30;92.70
23301;DHT22;11819;51.394;12.340;2022-12-07T18:56:06;4.30;92.60
23301;DHT22;11819;51.394;12.340;2022-12-07T18:58:33;4.30;92.60
23301;DHT22;11819;51.394;12.340;2022-12-07T19:00:59;4.30;92.60
23301;DHT22;11819;51.394;12.340;2022-12-07T19:03:25;4.30;92.60
23301;DHT22;11819;51.394;12.340;2022-12-07T19:05:50;4.30;92.70
23301;DHT22;11819;51.394;12.340;2022-12-07T19:08:17;4.30;92.70
23301;DHT22;11819;51.394;12.340;2022-12-07T19:10:42;4.30;92.60
23301;DHT22;11819;51.394;12.340;2022-12-07T19:13:08;4.30;92.60
23301;DHT22;11819;51.394;12.340;2022-12-07T19:15:34;4.30;92.60
23301;DHT22;11819;51.394;12.340;2022-12-07T19:18:00;4.30;92.60
23301;DHT22;11819;51.394;12.340;2022-12-07T19:20:25;4.30;92.70
23301;DHT22;11819;51.394;12.340;2022-12-07T19:22:52;4.30;92.80
23301;DHT22;11819;51.394;12.340;2022-12-07T19:25:17;4.30;92.70
23301;DHT22;11819;51.394;12.340;2022-12-07T19:27:43;4.30;92.90
23301;DHT22;11819;51.394;12.340;2022-12-07T19:30:09;4.30;92.90
23301;DHT22;11819;51.394;12.340;2022-12-07T19:32:36;4.30;92.90
23301;DHT22;11819;51.394;12.340;2022-12-07T19:35:03;4.30;92.90
23301;DHT22;11819;51.394;12.340;2022-12-07T19:37:29;4.20;92.90
23301;DHT22;11819;51.394;12.340;2022-12-07T19:39:55;4.20;92.90
23301;DHT22;11819;51.394;12.340;2022-12-07T19:42:22;4.20;93.00
23301;DHT22;11819;51.394;12.340;2022-12-07T19:44:48;4.20;93.10
23301;DHT22;11819;51.394;12.340;2022-12-07T19:47:14;4.20;93.20
23301;DHT22;11819;51.394;12.340;2022-12-07T19:49:42;4.20;93.10
23301;DHT22;11819;51.394;12.340;2022-12-07T19:52:10;4.20;93.10
23301;DHT22;11819;51.394;12.340;2022-12-07T19:54:36;4.20;93.10
23301;DHT22;11819;51.394;12.340;2022-12-07T19:57:03;4.20;93.10